Archie C. Settoon — WDD4754 — position and weather

sailwx.info

Track history (hours):
 
Tides and Currents Weather Stations Pressure Air Temp Water Temp Dewpoint Dewpoint Depression Visibility Wind Speed Wind Dir Waves Ship Positions

Archie C. Settoon

Owner: Settoon Towing, LLC, Gibson, LA. More information available from US FCC via Universal Licensing System and Coast Guard Vessel Documentation Center.

Last reported at 2018-Feb-18 20:14 UTC. Time now 2018-Feb-20 05:45 UTC.
Position N 29°48' W 092°06'.

Length 18 m.

Type: Tug. MMSI: 367113590.

Date/timePositionNaut miles runAvg speedWind from/ knotsBaromVisibWave heightAir tempDewpointWater temp
2018-Feb-18 20:14N 29°48' W 092°06'2 7.0
2018-Feb-18 20:00N 29°47' W 092°08'3 6.9
2018-Feb-18 19:30N 29°47' W 092°12'4 7.6
2018-Feb-18 19:00N 29°49' W 092°16'3 6.9
2018-Feb-18 18:30N 29°50' W 092°20'45 6.2
2018-Feb-18 11:14N 29°58' W 093°11'3 4.1
2018-Feb-18 10:27N 30°00' W 093°13'2 5.3
2018-Feb-18 10:00N 30°02' W 093°15'3 5.7
2018-Feb-18 09:30N 30°05' W 093°17'2 4.1
2018-Feb-18 09:00N 30°06' W 093°18'0 0.1
2018-Feb-18 08:29N 30°06' W 093°18'0 0.0
2018-Feb-18 08:00N 30°06' W 093°18'1 2.5
2018-Feb-18 07:30N 30°06' W 093°20'2 4.8
2018-Feb-18 07:00N 30°08' W 093°19'0 0.1
2018-Feb-18 06:30N 30°08' W 093°19'0 0.0
2018-Feb-18 06:00N 30°08' W 093°19'0 0.0
2018-Feb-18 05:30N 30°08' W 093°19'0 0.0
2018-Feb-18 05:00N 30°08' W 093°19'0 0.0
2018-Feb-18 04:30N 30°08' W 093°19'0 0.0
2018-Feb-18 04:00N 30°08' W 093°19'0 0.0
2018-Feb-18 03:30N 30°08' W 093°19'0 0.0
2018-Feb-18 03:00N 30°08' W 093°19'0 0.0
2018-Feb-18 02:30N 30°08' W 093°19'0 0.0
2018-Feb-18 02:00N 30°08' W 093°19'0 0.0
2018-Feb-18 01:30N 30°08' W 093°19'0 0.0
2018-Feb-18 01:00N 30°08' W 093°19'0 1.0
2018-Feb-18 00:30N 30°08' W 093°20'2 4.3
2018-Feb-18 00:00N 30°06' W 093°19'1 2.0
2018-Feb-17 23:30N 30°06' W 093°18'3 5.5
2018-Feb-17 23:00N 30°04' W 093°16'3 5.7
2018-Feb-17 22:30N 30°02' W 093°14'3 5.5
2018-Feb-17 22:00N 29°59' W 093°13'3 5.3
2018-Feb-17 21:30N 29°57' W 093°11'3 5.3
2018-Feb-17 21:00N 29°56' W 093°08'3 5.5
2018-Feb-17 20:30N 29°56' W 093°05'41 2.3
2018-Feb-17 03:02N 29°50' W 092°18'0 5.2
2018-Feb-17 03:00N 29°50' W 092°18'1 2.3
2018-Feb-17 02:30N 29°49' W 092°17'3 5.3
2018-Feb-17 02:00N 29°48' W 092°14'2 4.6
2018-Feb-17 01:30N 29°47' W 092°12'2 3.4
2018-Feb-17 00:59N 29°47' W 092°10'3 5.7
2018-Feb-17 00:30N 29°47' W 092°07'3 5.6
2018-Feb-17 00:01N 29°48' W 092°04'3 5.9
2018-Feb-16 23:28N 29°50' W 092°01'  
2018-Feb-14 12:26N 29°50' W 091°58'0 0.0
2018-Feb-14 11:56N 29°50' W 091°58'8 2.9
2018-Feb-14 09:05N 29°48' W 092°07'0 6.4
2018-Feb-14 09:00N 29°47' W 092°07'3 5.7
2018-Feb-14 08:30N 29°47' W 092°10'2 4.7
2018-Feb-14 08:00N 29°47' W 092°13'2 4.7
2018-Feb-14 07:30N 29°48' W 092°15'3 6.0
2018-Feb-14 07:00N 29°50' W 092°18'3 4.9
2018-Feb-14 06:25N 29°51' W 092°21'46 5.2
2018-Feb-13 21:33N 30°00' W 093°14'0 5.2
2018-Feb-13 21:30N 30°00' W 093°14'3 5.1
2018-Feb-13 21:00N 30°02' W 093°16'3 5.8
2018-Feb-13 20:30N 30°05' W 093°17'1 3.0
2018-Feb-13 20:00N 30°06' W 093°18'1 2.2
2018-Feb-13 19:30N 30°06' W 093°19'3 5.0
2018-Feb-13 19:00N 30°08' W 093°19'0 0.0
2018-Feb-13 18:30N 30°08' W 093°19'0 0.0
2018-Feb-13 18:00N 30°08' W 093°19'0 0.0
2018-Feb-13 17:30N 30°08' W 093°19'0 0.0
2018-Feb-13 17:00N 30°08' W 093°19'0 0.0
2018-Feb-13 16:30N 30°08' W 093°19'0 0.0
2018-Feb-13 15:59N 30°08' W 093°19'0 0.0
2018-Feb-13 15:30N 30°08' W 093°19'0 0.0
2018-Feb-13 15:00N 30°08' W 093°19'0 0.0
2018-Feb-13 14:30N 30°08' W 093°19'0 0.0
2018-Feb-13 14:00N 30°08' W 093°19'0 0.0
2018-Feb-13 13:30N 30°08' W 093°19'0 0.0
2018-Feb-13 13:00N 30°08' W 093°19'0 0.0
2018-Feb-13 12:30N 30°08' W 093°19'0 0.0
2018-Feb-13 12:00N 30°08' W 093°19'0 0.0
2018-Feb-13 11:30N 30°08' W 093°19'0 0.0
2018-Feb-13 11:00N 30°08' W 093°19'0 0.1
2018-Feb-13 10:30N 30°08' W 093°19'0 0.6
2018-Feb-13 10:00N 30°08' W 093°20'0 0.0
2018-Feb-13 09:30N 30°08' W 093°20'0 0.0
2018-Feb-13 08:59N 30°08' W 093°20'0 0.0
2018-Feb-13 08:29N 30°08' W 093°20'0 0.0
2018-Feb-13 07:59N 30°08' W 093°20'0 0.3
2018-Feb-13 07:30N 30°08' W 093°20'1 3.0
2018-Feb-13 07:00N 30°06' W 093°20'1 2.4
2018-Feb-13 06:30N 30°06' W 093°19'1 1.5
2018-Feb-13 06:00N 30°07' W 093°18'0 0.0
2018-Feb-13 05:28N 30°07' W 093°18'0 0.0
2018-Feb-13 05:00N 30°07' W 093°18'0 0.0
2018-Feb-13 04:30N 30°07' W 093°18'0 0.0
2018-Feb-13 04:00N 30°07' W 093°18'0 0.0
2018-Feb-13 03:30N 30°07' W 093°18'0 0.0
2018-Feb-13 03:00N 30°07' W 093°18'0 0.0
2018-Feb-13 02:30N 30°07' W 093°18'0 0.0
2018-Feb-13 02:00N 30°07' W 093°18'0 0.0
2018-Feb-13 01:30N 30°07' W 093°18'0 0.0
2018-Feb-13 01:00N 30°07' W 093°18'0 0.0
2018-Feb-13 00:30N 30°07' W 093°18'0 0.0
2018-Feb-13 00:00N 30°07' W 093°18'0 0.0
2018-Feb-12 23:28N 30°07' W 093°18'0 0.0
2018-Feb-12 23:00N 30°07' W 093°18'0 0.0
2018-Feb-12 22:30N 30°07' W 093°18'0 0.0
2018-Feb-12 22:00N 30°07' W 093°18'0 0.0
2018-Feb-12 21:29N 30°07' W 093°18'0 0.0
2018-Feb-12 20:55N 30°07' W 093°18'0 0.0
2018-Feb-12 20:27N 30°07' W 093°18'0 0.0
2018-Feb-12 20:00N 30°07' W 093°18'0 0.0
2018-Feb-12 19:28N 30°07' W 093°18'0 0.0
2018-Feb-12 19:00N 30°07' W 093°18'0 0.0
2018-Feb-12 18:30N 30°07' W 093°18'0 0.0
2018-Feb-12 18:00N 30°07' W 093°18'0 0.0
2018-Feb-12 17:28N 30°07' W 093°18'0 0.0
2018-Feb-12 17:00N 30°07' W 093°18'0 0.0
2018-Feb-12 16:29N 30°07' W 093°18'0 0.0
2018-Feb-12 16:00N 30°07' W 093°18'0 0.0
2018-Feb-12 15:30N 30°07' W 093°18'0 0.0
2018-Feb-12 14:59N 30°07' W 093°18'0 0.0
2018-Feb-12 14:28N 30°07' W 093°18'0 0.0
2018-Feb-12 14:00N 30°07' W 093°18'0 0.0
2018-Feb-12 13:30N 30°07' W 093°18'0 0.0
2018-Feb-12 13:00N 30°07' W 093°18'0 0.0
2018-Feb-12 12:28N 30°07' W 093°18'0 0.0
2018-Feb-12 11:59N 30°07' W 093°18'0 0.0
2018-Feb-12 11:30N 30°07' W 093°18'0 0.0
2018-Feb-12 10:59N 30°07' W 093°18'0 0.0
2018-Feb-12 10:30N 30°07' W 093°18'0 0.0
2018-Feb-12 09:55N 30°07' W 093°18'0 0.0
2018-Feb-12 09:25N 30°07' W 093°18'0 0.0
2018-Feb-12 09:00N 30°07' W 093°18'0 0.0
2018-Feb-12 08:29N 30°07' W 093°18'0 0.0
2018-Feb-12 08:00N 30°07' W 093°18'0 0.0
2018-Feb-12 07:30N 30°07' W 093°18'0 0.0
2018-Feb-12 07:00N 30°07' W 093°18'0 0.0
2018-Feb-12 06:30N 30°07' W 093°18'0 0.0
2018-Feb-12 05:55N 30°07' W 093°18'0 0.0
2018-Feb-12 05:30N 30°07' W 093°18'0 0.0
2018-Feb-12 05:00N 30°07' W 093°18'0 0.1
2018-Feb-12 04:27N 30°07' W 093°18'0 0.7
2018-Feb-12 04:00N 30°06' W 093°18'2 3.8
2018-Feb-12 03:30N 30°05' W 093°17'1 2.0
2018-Feb-12 02:59N 30°04' W 093°16'3 5.1
2018-Feb-12 02:29N 30°02' W 093°15'2 4.8
2018-Feb-12 02:00N 29°60' W 093°13'3 5.5
2018-Feb-12 01:30N 29°58' W 093°11'2 5.1
2018-Feb-12 01:00N 29°56' W 093°09'3 5.0
2018-Feb-12 00:27N 29°56' W 093°06'42 3.7
2018-Feb-11 13:04N 29°50' W 092°18'0 4.6
2018-Feb-11 13:00N 29°50' W 092°18'1 1.7
2018-Feb-11 12:30N 29°49' W 092°17'0 0.0
2018-Feb-11 12:00N 29°49' W 092°17'0 0.0
2018-Feb-11 11:30N 29°49' W 092°17'0 0.0
2018-Feb-11 11:00N 29°49' W 092°17'0 0.0
2018-Feb-11 10:30N 29°49' W 092°17'0 0.0
2018-Feb-11 10:00N 29°49' W 092°17'0 0.0
2018-Feb-11 09:30N 29°49' W 092°17'0 0.0
2018-Feb-11 09:00N 29°49' W 092°17'0 0.0
2018-Feb-11 08:29N 29°49' W 092°17'0 0.0
2018-Feb-11 08:00N 29°49' W 092°17'0 0.0
2018-Feb-11 07:30N 29°49' W 092°17'0 0.0
2018-Feb-11 07:00N 29°49' W 092°17'0 0.0
2018-Feb-11 06:28N 29°49' W 092°17'0 0.0
2018-Feb-11 06:00N 29°49' W 092°17'0 0.0
2018-Feb-11 05:30N 29°49' W 092°17'0 0.0
2018-Feb-11 05:00N 29°49' W 092°17'0 0.4
2018-Feb-11 04:30N 29°49' W 092°17'2 4.5
2018-Feb-11 04:00N 29°48' W 092°15'2 3.8
2018-Feb-11 03:30N 29°47' W 092°13'2 3.1
2018-Feb-11 03:00N 29°47' W 092°11'0 0.6
2018-Feb-11 02:29N 29°47' W 092°11'0 0.8
2018-Feb-11 02:00N 29°47' W 092°10'2 4.1
2018-Feb-11 01:30N 29°47' W 092°08'2 4.9
2018-Feb-11 01:00N 29°48' W 092°05'2 4.1
2018-Feb-11 00:30N 29°49' W 092°03'3 5.0
2018-Feb-10 23:56N 29°50' W 092°00'  
Track history (hours):
 
Tides and Currents Weather Stations Pressure Air Temp Water Temp Dewpoint Dewpoint Depression Visibility Wind Speed Wind Dir Waves Ship Positions

Archie C. Settoon

Owner: Settoon Towing, LLC, Gibson, LA. More information available from US FCC via Universal Licensing System and Coast Guard Vessel Documentation Center.

Last reported at 2018-Feb-18 20:14 UTC. Time now 2018-Feb-20 05:45 UTC.
Position N 29°48' W 092°06'.

Length 18 m.

Type: Tug. MMSI: 367113590.

Date/timePositionNaut miles runAvg speedWind from/ knotsBaromVisibWave heightAir tempDewpointWater temp
2018-Feb-18 20:14N 29°48' W 092°06'2 7.0
2018-Feb-18 20:00N 29°47' W 092°08'3 6.9
2018-Feb-18 19:30N 29°47' W 092°12'4 7.6
2018-Feb-18 19:00N 29°49' W 092°16'3 6.9
2018-Feb-18 18:30N 29°50' W 092°20'45 6.2
2018-Feb-18 11:14N 29°58' W 093°11'3 4.1
2018-Feb-18 10:27N 30°00' W 093°13'2 5.3
2018-Feb-18 10:00N 30°02' W 093°15'3 5.7
2018-Feb-18 09:30N 30°05' W 093°17'2 4.1
2018-Feb-18 09:00N 30°06' W 093°18'0 0.1
2018-Feb-18 08:29N 30°06' W 093°18'0 0.0
2018-Feb-18 08:00N 30°06' W 093°18'1 2.5
2018-Feb-18 07:30N 30°06' W 093°20'2 4.8
2018-Feb-18 07:00N 30°08' W 093°19'0 0.1
2018-Feb-18 06:30N 30°08' W 093°19'0 0.0
2018-Feb-18 06:00N 30°08' W 093°19'0 0.0
2018-Feb-18 05:30N 30°08' W 093°19'0 0.0
2018-Feb-18 05:00N 30°08' W 093°19'0 0.0
2018-Feb-18 04:30N 30°08' W 093°19'0 0.0
2018-Feb-18 04:00N 30°08' W 093°19'0 0.0
2018-Feb-18 03:30N 30°08' W 093°19'0 0.0
2018-Feb-18 03:00N 30°08' W 093°19'0 0.0
2018-Feb-18 02:30N 30°08' W 093°19'0 0.0
2018-Feb-18 02:00N 30°08' W 093°19'0 0.0
2018-Feb-18 01:30N 30°08' W 093°19'0 0.0
2018-Feb-18 01:00N 30°08' W 093°19'0 1.0
2018-Feb-18 00:30N 30°08' W 093°20'2 4.3
2018-Feb-18 00:00N 30°06' W 093°19'1 2.0
2018-Feb-17 23:30N 30°06' W 093°18'3 5.5
2018-Feb-17 23:00N 30°04' W 093°16'3 5.7
2018-Feb-17 22:30N 30°02' W 093°14'3 5.5
2018-Feb-17 22:00N 29°59' W 093°13'3 5.3
2018-Feb-17 21:30N 29°57' W 093°11'3 5.3
2018-Feb-17 21:00N 29°56' W 093°08'3 5.5
2018-Feb-17 20:30N 29°56' W 093°05'41 2.3
2018-Feb-17 03:02N 29°50' W 092°18'0 5.2
2018-Feb-17 03:00N 29°50' W 092°18'1 2.3
2018-Feb-17 02:30N 29°49' W 092°17'3 5.3
2018-Feb-17 02:00N 29°48' W 092°14'2 4.6
2018-Feb-17 01:30N 29°47' W 092°12'2 3.4
2018-Feb-17 00:59N 29°47' W 092°10'3 5.7
2018-Feb-17 00:30N 29°47' W 092°07'3 5.6
2018-Feb-17 00:01N 29°48' W 092°04'3 5.9
2018-Feb-16 23:28N 29°50' W 092°01'  
2018-Feb-14 12:26N 29°50' W 091°58'0 0.0
2018-Feb-14 11:56N 29°50' W 091°58'8 2.9
2018-Feb-14 09:05N 29°48' W 092°07'0 6.4
2018-Feb-14 09:00N 29°47' W 092°07'3 5.7
2018-Feb-14 08:30N 29°47' W 092°10'2 4.7
2018-Feb-14 08:00N 29°47' W 092°13'2 4.7
2018-Feb-14 07:30N 29°48' W 092°15'3 6.0
2018-Feb-14 07:00N 29°50' W 092°18'3 4.9
2018-Feb-14 06:25N 29°51' W 092°21'46 5.2
2018-Feb-13 21:33N 30°00' W 093°14'0 5.2
2018-Feb-13 21:30N 30°00' W 093°14'3 5.1
2018-Feb-13 21:00N 30°02' W 093°16'3 5.8
2018-Feb-13 20:30N 30°05' W 093°17'1 3.0
2018-Feb-13 20:00N 30°06' W 093°18'1 2.2
2018-Feb-13 19:30N 30°06' W 093°19'3 5.0
2018-Feb-13 19:00N 30°08' W 093°19'0 0.0
2018-Feb-13 18:30N 30°08' W 093°19'0 0.0
2018-Feb-13 18:00N 30°08' W 093°19'0 0.0
2018-Feb-13 17:30N 30°08' W 093°19'0 0.0
2018-Feb-13 17:00N 30°08' W 093°19'0 0.0
2018-Feb-13 16:30N 30°08' W 093°19'0 0.0
2018-Feb-13 15:59N 30°08' W 093°19'0 0.0
2018-Feb-13 15:30N 30°08' W 093°19'0 0.0
2018-Feb-13 15:00N 30°08' W 093°19'0 0.0
2018-Feb-13 14:30N 30°08' W 093°19'0 0.0
2018-Feb-13 14:00N 30°08' W 093°19'0 0.0
2018-Feb-13 13:30N 30°08' W 093°19'0 0.0
2018-Feb-13 13:00N 30°08' W 093°19'0 0.0
2018-Feb-13 12:30N 30°08' W 093°19'0 0.0
2018-Feb-13 12:00N 30°08' W 093°19'0 0.0
2018-Feb-13 11:30N 30°08' W 093°19'0 0.0
2018-Feb-13 11:00N 30°08' W 093°19'0 0.1
2018-Feb-13 10:30N 30°08' W 093°19'0 0.6
2018-Feb-13 10:00N 30°08' W 093°20'0 0.0
2018-Feb-13 09:30N 30°08' W 093°20'0 0.0
2018-Feb-13 08:59N 30°08' W 093°20'0 0.0
2018-Feb-13 08:29N 30°08' W 093°20'0 0.0
2018-Feb-13 07:59N 30°08' W 093°20'0 0.3
2018-Feb-13 07:30N 30°08' W 093°20'1 3.0
2018-Feb-13 07:00N 30°06' W 093°20'1 2.4
2018-Feb-13 06:30N 30°06' W 093°19'1 1.5
2018-Feb-13 06:00N 30°07' W 093°18'0 0.0
2018-Feb-13 05:28N 30°07' W 093°18'0 0.0
2018-Feb-13 05:00N 30°07' W 093°18'0 0.0
2018-Feb-13 04:30N 30°07' W 093°18'0 0.0
2018-Feb-13 04:00N 30°07' W 093°18'0 0.0
2018-Feb-13 03:30N 30°07' W 093°18'0 0.0
2018-Feb-13 03:00N 30°07' W 093°18'0 0.0
2018-Feb-13 02:30N 30°07' W 093°18'0 0.0
2018-Feb-13 02:00N 30°07' W 093°18'0 0.0
2018-Feb-13 01:30N 30°07' W 093°18'0 0.0
2018-Feb-13 01:00N 30°07' W 093°18'0 0.0
2018-Feb-13 00:30N 30°07' W 093°18'0 0.0
2018-Feb-13 00:00N 30°07' W 093°18'0 0.0
2018-Feb-12 23:28N 30°07' W 093°18'0 0.0
2018-Feb-12 23:00N 30°07' W 093°18'0 0.0
2018-Feb-12 22:30N 30°07' W 093°18'0 0.0
2018-Feb-12 22:00N 30°07' W 093°18'0 0.0
2018-Feb-12 21:29N 30°07' W 093°18'0 0.0
2018-Feb-12 20:55N 30°07' W 093°18'0 0.0
2018-Feb-12 20:27N 30°07' W 093°18'0 0.0
2018-Feb-12 20:00N 30°07' W 093°18'0 0.0
2018-Feb-12 19:28N 30°07' W 093°18'0 0.0
2018-Feb-12 19:00N 30°07' W 093°18'0 0.0
2018-Feb-12 18:30N 30°07' W 093°18'0 0.0
2018-Feb-12 18:00N 30°07' W 093°18'0 0.0
2018-Feb-12 17:28N 30°07' W 093°18'0 0.0
2018-Feb-12 17:00N 30°07' W 093°18'0 0.0
2018-Feb-12 16:29N 30°07' W 093°18'0 0.0
2018-Feb-12 16:00N 30°07' W 093°18'0 0.0
2018-Feb-12 15:30N 30°07' W 093°18'0 0.0
2018-Feb-12 14:59N 30°07' W 093°18'0 0.0
2018-Feb-12 14:28N 30°07' W 093°18'0 0.0
2018-Feb-12 14:00N 30°07' W 093°18'0 0.0
2018-Feb-12 13:30N 30°07' W 093°18'0 0.0
2018-Feb-12 13:00N 30°07' W 093°18'0 0.0
2018-Feb-12 12:28N 30°07' W 093°18'0 0.0
2018-Feb-12 11:59N 30°07' W 093°18'0 0.0
2018-Feb-12 11:30N 30°07' W 093°18'0 0.0
2018-Feb-12 10:59N 30°07' W 093°18'0 0.0
2018-Feb-12 10:30N 30°07' W 093°18'0 0.0
2018-Feb-12 09:55N 30°07' W 093°18'0 0.0
2018-Feb-12 09:25N 30°07' W 093°18'0 0.0
2018-Feb-12 09:00N 30°07' W 093°18'0 0.0
2018-Feb-12 08:29N 30°07' W 093°18'0 0.0
2018-Feb-12 08:00N 30°07' W 093°18'0 0.0
2018-Feb-12 07:30N 30°07' W 093°18'0 0.0
2018-Feb-12 07:00N 30°07' W 093°18'0 0.0
2018-Feb-12 06:30N 30°07' W 093°18'0 0.0
2018-Feb-12 05:55N 30°07' W 093°18'0 0.0
2018-Feb-12 05:30N 30°07' W 093°18'0 0.0
2018-Feb-12 05:00N 30°07' W 093°18'0 0.1
2018-Feb-12 04:27N 30°07' W 093°18'0 0.7
2018-Feb-12 04:00N 30°06' W 093°18'2 3.8
2018-Feb-12 03:30N 30°05' W 093°17'1 2.0
2018-Feb-12 02:59N 30°04' W 093°16'3 5.1
2018-Feb-12 02:29N 30°02' W 093°15'2 4.8
2018-Feb-12 02:00N 29°60' W 093°13'3 5.5
2018-Feb-12 01:30N 29°58' W 093°11'2 5.1
2018-Feb-12 01:00N 29°56' W 093°09'3 5.0
2018-Feb-12 00:27N 29°56' W 093°06'42 3.7
2018-Feb-11 13:04N 29°50' W 092°18'0 4.6
2018-Feb-11 13:00N 29°50' W 092°18'1 1.7
2018-Feb-11 12:30N 29°49' W 092°17'0 0.0
2018-Feb-11 12:00N 29°49' W 092°17'0 0.0
2018-Feb-11 11:30N 29°49' W 092°17'0 0.0
2018-Feb-11 11:00N 29°49' W 092°17'0 0.0
2018-Feb-11 10:30N 29°49' W 092°17'0 0.0
2018-Feb-11 10:00N 29°49' W 092°17'0 0.0
2018-Feb-11 09:30N 29°49' W 092°17'0 0.0
2018-Feb-11 09:00N 29°49' W 092°17'0 0.0
2018-Feb-11 08:29N 29°49' W 092°17'0 0.0
2018-Feb-11 08:00N 29°49' W 092°17'0 0.0
2018-Feb-11 07:30N 29°49' W 092°17'0 0.0
2018-Feb-11 07:00N 29°49' W 092°17'0 0.0
2018-Feb-11 06:28N 29°49' W 092°17'0 0.0
2018-Feb-11 06:00N 29°49' W 092°17'0 0.0
2018-Feb-11 05:30N 29°49' W 092°17'0 0.0
2018-Feb-11 05:00N 29°49' W 092°17'0 0.4
2018-Feb-11 04:30N 29°49' W 092°17'2 4.5
2018-Feb-11 04:00N 29°48' W 092°15'2 3.8
2018-Feb-11 03:30N 29°47' W 092°13'2 3.1
2018-Feb-11 03:00N 29°47' W 092°11'0 0.6
2018-Feb-11 02:29N 29°47' W 092°11'0 0.8
2018-Feb-11 02:00N 29°47' W 092°10'2 4.1
2018-Feb-11 01:30N 29°47' W 092°08'2 4.9
2018-Feb-11 01:00N 29°48' W 092°05'2 4.1
2018-Feb-11 00:30N 29°49' W 092°03'3 5.0
2018-Feb-10 23:56N 29°50' W 092°00'  

Dump ship's entire track history